Vemaoil Xxv — 9HSA7 — position and weather

sailwx.info

Track history (hours):
 
Tides and Currents Weather Stations Pressure Air Temp Water Temp Dewpoint Dewpoint Depression Visibility Wind Speed Wind Dir Waves Ship Positions

Vemaoil Xxv

Last reported at 2017-Oct-18 07:30 UTC. Time now 2017-Oct-18 07:57 UTC.
Position N 36°08' W 005°22'.

Length 105 m; draft 5.8 m.

Type: Tanker. MMSI: 215520000.

Date/timePositionNaut miles runAvg speedWind from/ knotsBaromVisibWave heightAir tempDewpointWater temp
2017-Oct-18 07:30N 36°08' W 005°22'0 0.2
2017-Oct-18 06:50N 36°08' W 005°22'1 2.6
2017-Oct-18 06:26N 36°07' W 005°21'0 0.0
2017-Oct-18 05:14N 36°07' W 005°21'0 0.0
2017-Oct-18 04:50N 36°07' W 005°21'0 0.0
2017-Oct-18 04:14N 36°07' W 005°21'0 0.2
2017-Oct-18 03:59N 36°07' W 005°21'0 0.0
2017-Oct-18 03:26N 36°07' W 005°21'0 0.0
2017-Oct-18 02:59N 36°07' W 005°21'0 0.1
2017-Oct-18 02:26N 36°07' W 005°21'0 0.0
2017-Oct-17 23:41N 36°07' W 005°21'0 0.0
2017-Oct-17 23:20N 36°07' W 005°21'0 0.0
2017-Oct-17 22:56N 36°07' W 005°21'0 0.1
2017-Oct-17 21:53N 36°07' W 005°22'1 3.6
2017-Oct-17 21:30N 36°08' W 005°22'0 0.1
2017-Oct-17 15:32N 36°08' W 005°22'0 6.6
2017-Oct-17 15:30N 36°08' W 005°22'3 6.0
2017-Oct-17 14:59N 36°06' W 005°19'0 0.1
2017-Oct-17 08:35N 36°06' W 005°19'1 7.8
2017-Oct-17 08:25N 36°05' W 005°21'2 0.8
2017-Oct-17 05:29N 36°07' W 005°22'0 0.4
2017-Oct-17 04:59N 36°07' W 005°22'0 0.2
2017-Oct-17 04:29N 36°07' W 005°22'0 0.0
2017-Oct-17 03:59N 36°07' W 005°22'0 0.0
2017-Oct-17 03:14N 36°07' W 005°22'0 0.0
2017-Oct-17 02:59N 36°07' W 005°22'0 0.1
2017-Oct-17 02:29N 36°07' W 005°22'0 0.1
2017-Oct-17 01:56N 36°07' W 005°22'0 0.0
2017-Oct-17 01:26N 36°07' W 005°22'0 0.1
2017-Oct-17 00:59N 36°07' W 005°22'0 0.2
2017-Oct-17 00:30N 36°07' W 005°22'0 0.1
2017-Oct-16 21:23N 36°07' W 005°21'0 0.0
2017-Oct-16 17:34N 36°07' W 005°22'0 3.4
2017-Oct-16 17:29N 36°07' W 005°22'0 0.0
2017-Oct-16 05:19N 36°07' W 005°22'0 0.2
2017-Oct-16 04:58N 36°07' W 005°22'0 0.2
2017-Oct-16 04:19N 36°07' W 005°22'0 0.3
2017-Oct-16 03:58N 36°07' W 005°22'0 0.1
2017-Oct-16 03:25N 36°07' W 005°22'0 0.1
2017-Oct-16 02:55N 36°07' W 005°21'0 0.3
2017-Oct-16 02:30N 36°07' W 005°22'2 4.4
2017-Oct-16 02:00N 36°06' W 005°19'1 0.4
2017-Oct-15 23:38N 36°07' W 005°18'0 0.1
2017-Oct-15 23:29N 36°07' W 005°18'0 0.0
2017-Oct-15 22:44N 36°07' W 005°18'0 0.1
2017-Oct-15 22:26N 36°07' W 005°18'0 0.0
2017-Oct-15 21:59N 36°07' W 005°18'0 0.0
2017-Oct-15 21:26N 36°07' W 005°18'0 0.0
2017-Oct-15 20:59N 36°07' W 005°18'0 0.0
2017-Oct-15 20:26N 36°07' W 005°18'0 0.0
2017-Oct-15 19:59N 36°07' W 005°18'0 0.0
2017-Oct-15 19:26N 36°07' W 005°18'2 1.0
2017-Oct-15 17:54N 36°06' W 005°20'3 6.1
2017-Oct-15 17:30N 36°07' W 005°22'2 0.2
2017-Oct-15 08:07N 36°09' W 005°23'1 0.1
2017-Oct-14 23:11N 36°09' W 005°22'1 0.1
2017-Oct-14 15:14N 36°08' W 005°22'0 0.0
2017-Oct-14 03:34N 36°08' W 005°22'0 0.0
2017-Oct-14 03:28N 36°08' W 005°22'0 0.0
2017-Oct-14 01:37N 36°08' W 005°22'0 0.0
2017-Oct-14 01:07N 36°08' W 005°22'0 0.1
2017-Oct-14 00:58N 36°08' W 005°22'0 0.0
2017-Oct-14 00:28N 36°08' W 005°22'0 0.0
2017-Oct-13 22:58N 36°08' W 005°22'0 0.0
2017-Oct-13 20:39N 36°08' W 005°22'0 3.1
2017-Oct-13 20:30N 36°08' W 005°22'0 0.3
2017-Oct-13 19:23N 36°09' W 005°23'1 0.0
2017-Oct-13 03:14N 36°09' W 005°23'0 0.1
2017-Oct-13 02:47N 36°09' W 005°23'0 1.1
2017-Oct-13 02:27N 36°09' W 005°23'1 0.5
2017-Oct-13 00:39N 36°08' W 005°22'0 0.1
2017-Oct-13 00:21N 36°08' W 005°22'0 0.0
2017-Oct-12 23:57N 36°08' W 005°22'0 0.0
2017-Oct-12 23:15N 36°08' W 005°22'0 0.1
2017-Oct-12 23:00N 36°08' W 005°22'0 0.1
2017-Oct-12 22:21N 36°08' W 005°22'0 0.1
2017-Oct-12 22:00N 36°08' W 005°22'0 0.0
2017-Oct-12 21:27N 36°08' W 005°22'0 0.0
2017-Oct-12 21:00N 36°08' W 005°22'0 0.0
2017-Oct-12 19:36N 36°08' W 005°22'0 0.3
2017-Oct-12 19:30N 36°08' W 005°22'0 0.1
2017-Oct-12 19:00N 36°08' W 005°22'0 0.1
2017-Oct-12 18:15N 36°08' W 005°22'0 0.0
2017-Oct-12 17:54N 36°08' W 005°22'1 2.5
2017-Oct-12 17:30N 36°07' W 005°22'0 0.0
2017-Oct-12 14:05N 36°07' W 005°22'0 0.3
2017-Oct-12 13:59N 36°07' W 005°22'0 0.4
2017-Oct-12 13:20N 36°07' W 005°22'0 0.1
2017-Oct-12 12:59N 36°07' W 005°22'0 0.0
2017-Oct-12 12:20N 36°07' W 005°22'0 0.0
2017-Oct-12 11:05N 36°07' W 005°22'0 0.0
2017-Oct-12 10:47N 36°07' W 005°22'0 0.0
2017-Oct-12 10:29N 36°07' W 005°22'0 0.0
2017-Oct-12 09:50N 36°07' W 005°22'0 0.0
2017-Oct-12 05:41N 36°07' W 005°22'0 0.4
2017-Oct-12 05:29N 36°07' W 005°22'1 0.2
2017-Oct-12 00:16N 36°08' W 005°22'0 1.7
2017-Oct-11 23:59N 36°09' W 005°22'1 0.1
2017-Oct-11 20:18N 36°09' W 005°22'0 0.2
2017-Oct-11 19:57N 36°09' W 005°22'1 0.4
2017-Oct-11 17:07N 36°08' W 005°22'1 6.9
2017-Oct-11 16:57N 36°07' W 005°22'2 0.1
2017-Oct-10 20:55N 36°09' W 005°23'0 0.3
2017-Oct-10 19:11N 36°09' W 005°22'1 0.5
2017-Oct-10 16:44N 36°08' W 005°22'0 0.1
2017-Oct-10 12:53N 36°08' W 005°22'0 0.1
2017-Oct-10 12:26N 36°08' W 005°22'0 0.2
2017-Oct-10 11:14N 36°07' W 005°22'0 0.1
2017-Oct-10 10:56N 36°07' W 005°22'0 0.1
2017-Oct-10 10:29N 36°07' W 005°22'0 0.0
2017-Oct-10 09:59N 36°07' W 005°22'0 0.0
2017-Oct-10 09:29N 36°07' W 005°22'  
Track history (hours):
 
Tides and Currents Weather Stations Pressure Air Temp Water Temp Dewpoint Dewpoint Depression Visibility Wind Speed Wind Dir Waves Ship Positions

Vemaoil Xxv

Last reported at 2017-Oct-18 07:30 UTC. Time now 2017-Oct-18 07:57 UTC.
Position N 36°08' W 005°22'.

Length 105 m; draft 5.8 m.

Type: Tanker. MMSI: 215520000.

Date/timePositionNaut miles runAvg speedWind from/ knotsBaromVisibWave heightAir tempDewpointWater temp
2017-Oct-18 07:30N 36°08' W 005°22'0 0.2
2017-Oct-18 06:50N 36°08' W 005°22'1 2.6
2017-Oct-18 06:26N 36°07' W 005°21'0 0.0
2017-Oct-18 05:14N 36°07' W 005°21'0 0.0
2017-Oct-18 04:50N 36°07' W 005°21'0 0.0
2017-Oct-18 04:14N 36°07' W 005°21'0 0.2
2017-Oct-18 03:59N 36°07' W 005°21'0 0.0
2017-Oct-18 03:26N 36°07' W 005°21'0 0.0
2017-Oct-18 02:59N 36°07' W 005°21'0 0.1
2017-Oct-18 02:26N 36°07' W 005°21'0 0.0
2017-Oct-17 23:41N 36°07' W 005°21'0 0.0
2017-Oct-17 23:20N 36°07' W 005°21'0 0.0
2017-Oct-17 22:56N 36°07' W 005°21'0 0.1
2017-Oct-17 21:53N 36°07' W 005°22'1 3.6
2017-Oct-17 21:30N 36°08' W 005°22'0 0.1
2017-Oct-17 15:32N 36°08' W 005°22'0 6.6
2017-Oct-17 15:30N 36°08' W 005°22'3 6.0
2017-Oct-17 14:59N 36°06' W 005°19'0 0.1
2017-Oct-17 08:35N 36°06' W 005°19'1 7.8
2017-Oct-17 08:25N 36°05' W 005°21'2 0.8
2017-Oct-17 05:29N 36°07' W 005°22'0 0.4
2017-Oct-17 04:59N 36°07' W 005°22'0 0.2
2017-Oct-17 04:29N 36°07' W 005°22'0 0.0
2017-Oct-17 03:59N 36°07' W 005°22'0 0.0
2017-Oct-17 03:14N 36°07' W 005°22'0 0.0
2017-Oct-17 02:59N 36°07' W 005°22'0 0.1
2017-Oct-17 02:29N 36°07' W 005°22'0 0.1
2017-Oct-17 01:56N 36°07' W 005°22'0 0.0
2017-Oct-17 01:26N 36°07' W 005°22'0 0.1
2017-Oct-17 00:59N 36°07' W 005°22'0 0.2
2017-Oct-17 00:30N 36°07' W 005°22'0 0.1
2017-Oct-16 21:23N 36°07' W 005°21'0 0.0
2017-Oct-16 17:34N 36°07' W 005°22'0 3.4
2017-Oct-16 17:29N 36°07' W 005°22'0 0.0
2017-Oct-16 05:19N 36°07' W 005°22'0 0.2
2017-Oct-16 04:58N 36°07' W 005°22'0 0.2
2017-Oct-16 04:19N 36°07' W 005°22'0 0.3
2017-Oct-16 03:58N 36°07' W 005°22'0 0.1
2017-Oct-16 03:25N 36°07' W 005°22'0 0.1
2017-Oct-16 02:55N 36°07' W 005°21'0 0.3
2017-Oct-16 02:30N 36°07' W 005°22'2 4.4
2017-Oct-16 02:00N 36°06' W 005°19'1 0.4
2017-Oct-15 23:38N 36°07' W 005°18'0 0.1
2017-Oct-15 23:29N 36°07' W 005°18'0 0.0
2017-Oct-15 22:44N 36°07' W 005°18'0 0.1
2017-Oct-15 22:26N 36°07' W 005°18'0 0.0
2017-Oct-15 21:59N 36°07' W 005°18'0 0.0
2017-Oct-15 21:26N 36°07' W 005°18'0 0.0
2017-Oct-15 20:59N 36°07' W 005°18'0 0.0
2017-Oct-15 20:26N 36°07' W 005°18'0 0.0
2017-Oct-15 19:59N 36°07' W 005°18'0 0.0
2017-Oct-15 19:26N 36°07' W 005°18'2 1.0
2017-Oct-15 17:54N 36°06' W 005°20'3 6.1
2017-Oct-15 17:30N 36°07' W 005°22'2 0.2
2017-Oct-15 08:07N 36°09' W 005°23'1 0.1
2017-Oct-14 23:11N 36°09' W 005°22'1 0.1
2017-Oct-14 15:14N 36°08' W 005°22'0 0.0
2017-Oct-14 03:34N 36°08' W 005°22'0 0.0
2017-Oct-14 03:28N 36°08' W 005°22'0 0.0
2017-Oct-14 01:37N 36°08' W 005°22'0 0.0
2017-Oct-14 01:07N 36°08' W 005°22'0 0.1
2017-Oct-14 00:58N 36°08' W 005°22'0 0.0
2017-Oct-14 00:28N 36°08' W 005°22'0 0.0
2017-Oct-13 22:58N 36°08' W 005°22'0 0.0
2017-Oct-13 20:39N 36°08' W 005°22'0 3.1
2017-Oct-13 20:30N 36°08' W 005°22'0 0.3
2017-Oct-13 19:23N 36°09' W 005°23'1 0.0
2017-Oct-13 03:14N 36°09' W 005°23'0 0.1
2017-Oct-13 02:47N 36°09' W 005°23'0 1.1
2017-Oct-13 02:27N 36°09' W 005°23'1 0.5
2017-Oct-13 00:39N 36°08' W 005°22'0 0.1
2017-Oct-13 00:21N 36°08' W 005°22'0 0.0
2017-Oct-12 23:57N 36°08' W 005°22'0 0.0
2017-Oct-12 23:15N 36°08' W 005°22'0 0.1
2017-Oct-12 23:00N 36°08' W 005°22'0 0.1
2017-Oct-12 22:21N 36°08' W 005°22'0 0.1
2017-Oct-12 22:00N 36°08' W 005°22'0 0.0
2017-Oct-12 21:27N 36°08' W 005°22'0 0.0
2017-Oct-12 21:00N 36°08' W 005°22'0 0.0
2017-Oct-12 19:36N 36°08' W 005°22'0 0.3
2017-Oct-12 19:30N 36°08' W 005°22'0 0.1
2017-Oct-12 19:00N 36°08' W 005°22'0 0.1
2017-Oct-12 18:15N 36°08' W 005°22'0 0.0
2017-Oct-12 17:54N 36°08' W 005°22'1 2.5
2017-Oct-12 17:30N 36°07' W 005°22'0 0.0
2017-Oct-12 14:05N 36°07' W 005°22'0 0.3
2017-Oct-12 13:59N 36°07' W 005°22'0 0.4
2017-Oct-12 13:20N 36°07' W 005°22'0 0.1
2017-Oct-12 12:59N 36°07' W 005°22'0 0.0
2017-Oct-12 12:20N 36°07' W 005°22'0 0.0
2017-Oct-12 11:05N 36°07' W 005°22'0 0.0
2017-Oct-12 10:47N 36°07' W 005°22'0 0.0
2017-Oct-12 10:29N 36°07' W 005°22'0 0.0
2017-Oct-12 09:50N 36°07' W 005°22'0 0.0
2017-Oct-12 05:41N 36°07' W 005°22'0 0.4
2017-Oct-12 05:29N 36°07' W 005°22'1 0.2
2017-Oct-12 00:16N 36°08' W 005°22'0 1.7
2017-Oct-11 23:59N 36°09' W 005°22'1 0.1
2017-Oct-11 20:18N 36°09' W 005°22'0 0.2
2017-Oct-11 19:57N 36°09' W 005°22'1 0.4
2017-Oct-11 17:07N 36°08' W 005°22'1 6.9
2017-Oct-11 16:57N 36°07' W 005°22'2 0.1
2017-Oct-10 20:55N 36°09' W 005°23'0 0.3
2017-Oct-10 19:11N 36°09' W 005°22'1 0.5
2017-Oct-10 16:44N 36°08' W 005°22'0 0.1
2017-Oct-10 12:53N 36°08' W 005°22'0 0.1
2017-Oct-10 12:26N 36°08' W 005°22'0 0.2
2017-Oct-10 11:14N 36°07' W 005°22'0 0.1
2017-Oct-10 10:56N 36°07' W 005°22'0 0.1
2017-Oct-10 10:29N 36°07' W 005°22'0 0.0
2017-Oct-10 09:59N 36°07' W 005°22'0 0.0
2017-Oct-10 09:29N 36°07' W 005°22'  

Dump ship's entire track history